sensor_id;sensor_type;location;lat;lon;timestamp;P1;durP1;ratioP1;P2;durP2;ratioP2
31694;SDS011;18289;51.330;4.946;2024-03-08T00:01:10;35.88;;;19.05;;
31694;SDS011;18289;51.330;4.946;2024-03-08T00:03:35;33.33;;;19.20;;
31694;SDS011;18289;51.330;4.946;2024-03-08T00:06:01;34.90;;;18.75;;
31694;SDS011;18289;51.330;4.946;2024-03-08T00:08:27;33.25;;;18.77;;
31694;SDS011;18289;51.330;4.946;2024-03-08T00:10:53;37.47;;;18.70;;
31694;SDS011;18289;51.330;4.946;2024-03-08T00:13:19;35.58;;;19.00;;
31694;SDS011;18289;51.330;4.946;2024-03-08T00:15:44;31.98;;;17.98;;
31694;SDS011;18289;51.330;4.946;2024-03-08T00:18:10;32.25;;;18.80;;
31694;SDS011;18289;51.330;4.946;2024-03-08T00:20:36;34.75;;;18.25;;
31694;SDS011;18289;51.330;4.946;2024-03-08T00:23:02;31.08;;;17.75;;
31694;SDS011;18289;51.330;4.946;2024-03-08T00:25:28;32.85;;;18.90;;
31694;SDS011;18289;51.330;4.946;2024-03-08T00:27:54;28.65;;;17.75;;
31694;SDS011;18289;51.330;4.946;2024-03-08T00:30:21;30.48;;;17.60;;
31694;SDS011;18289;51.330;4.946;2024-03-08T00:32:48;30.13;;;18.48;;
31694;SDS011;18289;51.330;4.946;2024-03-08T00:35:14;31.25;;;17.73;;
31694;SDS011;18289;51.330;4.946;2024-03-08T00:37:40;29.58;;;17.02;;
31694;SDS011;18289;51.330;4.946;2024-03-08T00:40:11;31.92;;;18.20;;
31694;SDS011;18289;51.330;4.946;2024-03-08T00:42:37;33.30;;;17.83;;
31694;SDS011;18289;51.330;4.946;2024-03-08T00:45:04;29.40;;;18.13;;
31694;SDS011;18289;51.330;4.946;2024-03-08T00:47:30;30.63;;;17.50;;
31694;SDS011;18289;51.330;4.946;2024-03-08T00:49:56;30.33;;;17.45;;
31694;SDS011;18289;51.330;4.946;2024-03-08T00:52:22;34.60;;;18.33;;
31694;SDS011;18289;51.330;4.946;2024-03-08T00:54:49;32.10;;;17.00;;
31694;SDS011;18289;51.330;4.946;2024-03-08T00:57:15;30.95;;;18.60;;
31694;SDS011;18289;51.330;4.946;2024-03-08T00:59:40;30.30;;;17.33;;
31694;SDS011;18289;51.330;4.946;2024-03-08T01:02:06;26.38;;;16.08;;
31694;SDS011;18289;51.330;4.946;2024-03-08T01:04:34;35.33;;;18.65;;
31694;SDS011;18289;51.330;4.946;2024-03-08T01:07:00;33.83;;;18.63;;
31694;SDS011;18289;51.330;4.946;2024-03-08T01:09:26;30.60;;;18.23;;
31694;SDS011;18289;51.330;4.946;2024-03-08T01:11:52;30.15;;;17.63;;
31694;SDS011;18289;51.330;4.946;2024-03-08T01:14:19;29.33;;;17.48;;
31694;SDS011;18289;51.330;4.946;2024-03-08T01:16:47;32.03;;;18.45;;
31694;SDS011;18289;51.330;4.946;2024-03-08T01:19:14;28.30;;;17.55;;
31694;SDS011;18289;51.330;4.946;2024-03-08T01:21:40;30.52;;;17.83;;
31694;SDS011;18289;51.330;4.946;2024-03-08T01:24:06;30.20;;;17.73;;
31694;SDS011;18289;51.330;4.946;2024-03-08T01:26:32;28.52;;;17.33;;
31694;SDS011;18289;51.330;4.946;2024-03-08T01:28:59;29.08;;;16.80;;
31694;SDS011;18289;51.330;4.946;2024-03-08T01:31:25;28.75;;;17.67;;
31694;SDS011;18289;51.330;4.946;2024-03-08T01:33:51;35.25;;;17.27;;
31694;SDS011;18289;51.330;4.946;2024-03-08T01:36:18;28.42;;;17.88;;
31694;SDS011;18289;51.330;4.946;2024-03-08T01:38:44;30.63;;;17.42;;
31694;SDS011;18289;51.330;4.946;2024-03-08T01:41:10;30.83;;;18.20;;
31694;SDS011;18289;51.330;4.946;2024-03-08T01:43:38;28.88;;;17.85;;
31694;SDS011;18289;51.330;4.946;2024-03-08T01:46:04;29.92;;;17.05;;
31694;SDS011;18289;51.330;4.946;2024-03-08T01:48:33;26.70;;;17.63;;
31694;SDS011;18289;51.330;4.946;2024-03-08T01:50:59;25.75;;;16.67;;
31694;SDS011;18289;51.330;4.946;2024-03-08T01:53:26;28.63;;;17.50;;
31694;SDS011;18289;51.330;4.946;2024-03-08T01:55:54;29.10;;;17.83;;
31694;SDS011;18289;51.330;4.946;2024-03-08T01:58:22;31.70;;;18.80;;
31694;SDS011;18289;51.330;4.946;2024-03-08T02:00:48;28.90;;;17.67;;
31694;SDS011;18289;51.330;4.946;2024-03-08T02:03:17;27.42;;;17.33;;
31694;SDS011;18289;51.330;4.946;2024-03-08T02:05:43;26.60;;;16.27;;
31694;SDS011;18289;51.330;4.946;2024-03-08T02:08:09;28.92;;;16.92;;
31694;SDS011;18289;51.330;4.946;2024-03-08T02:10:39;26.42;;;17.25;;
31694;SDS011;18289;51.330;4.946;2024-03-08T02:13:08;28.40;;;17.25;;
31694;SDS011;18289;51.330;4.946;2024-03-08T02:18:20;31.73;;;17.25;;
31694;SDS011;18289;51.330;4.946;2024-03-08T02:20:47;29.58;;;17.38;;
31694;SDS011;18289;51.330;4.946;2024-03-08T02:23:23;27.50;;;16.85;;
31694;SDS011;18289;51.330;4.946;2024-03-08T02:25:52;27.95;;;17.83;;
31694;SDS011;18289;51.330;4.946;2024-03-08T02:28:20;27.98;;;17.73;;
31694;SDS011;18289;51.330;4.946;2024-03-08T02:30:49;25.58;;;16.35;;
31694;SDS011;18289;51.330;4.946;2024-03-08T02:33:24;26.77;;;16.73;;
31694;SDS011;18289;51.330;4.946;2024-03-08T02:35:50;25.58;;;17.33;;
31694;SDS011;18289;51.330;4.946;2024-03-08T02:38:17;28.10;;;17.20;;
31694;SDS011;18289;51.330;4.946;2024-03-08T02:40:47;29.00;;;17.20;;
31694;SDS011;18289;51.330;4.946;2024-03-08T02:43:14;26.45;;;16.60;;
31694;SDS011;18289;51.330;4.946;2024-03-08T02:45:41;27.67;;;17.20;;
31694;SDS011;18289;51.330;4.946;2024-03-08T02:48:07;25.55;;;16.40;;
31694;SDS011;18289;51.330;4.946;2024-03-08T02:50:34;26.67;;;17.20;;
31694;SDS011;18289;51.330;4.946;2024-03-08T02:53:01;27.77;;;16.83;;
31694;SDS011;18289;51.330;4.946;2024-03-08T02:55:27;26.10;;;16.42;;
31694;SDS011;18289;51.330;4.946;2024-03-08T02:57:53;29.45;;;18.02;;
31694;SDS011;18289;51.330;4.946;2024-03-08T03:00:22;31.00;;;18.65;;
31694;SDS011;18289;51.330;4.946;2024-03-08T03:02:49;24.77;;;16.13;;
31694;SDS011;18289;51.330;4.946;2024-03-08T03:05:22;25.38;;;17.10;;
31694;SDS011;18289;51.330;4.946;2024-03-08T03:07:49;26.60;;;16.80;;
31694;SDS011;18289;51.330;4.946;2024-03-08T03:10:17;26.63;;;16.42;;
31694;SDS011;18289;51.330;4.946;2024-03-08T03:12:44;30.33;;;17.20;;
31694;SDS011;18289;51.330;4.946;2024-03-08T03:17:45;26.92;;;17.27;;
31694;SDS011;18289;51.330;4.946;2024-03-08T03:20:11;25.70;;;16.15;;
31694;SDS011;18289;51.330;4.946;2024-03-08T03:22:47;26.42;;;16.80;;
31694;SDS011;18289;51.330;4.946;2024-03-08T03:25:21;27.25;;;16.55;;
31694;SDS011;18289;51.330;4.946;2024-03-08T03:27:58;27.80;;;16.70;;
31694;SDS011;18289;51.330;4.946;2024-03-08T03:30:25;25.25;;;16.63;;
31694;SDS011;18289;51.330;4.946;2024-03-08T03:32:51;28.08;;;17.27;;
31694;SDS011;18289;51.330;4.946;2024-03-08T03:35:19;28.08;;;18.38;;
31694;SDS011;18289;51.330;4.946;2024-03-08T03:37:48;27.83;;;17.17;;
31694;SDS011;18289;51.330;4.946;2024-03-08T03:42:53;28.80;;;16.33;;
31694;SDS011;18289;51.330;4.946;2024-03-08T03:47:47;26.40;;;16.67;;
31694;SDS011;18289;51.330;4.946;2024-03-08T03:50:13;27.60;;;17.20;;
31694;SDS011;18289;51.330;4.946;2024-03-08T03:52:39;26.50;;;17.02;;
31694;SDS011;18289;51.330;4.946;2024-03-08T03:55:04;29.77;;;16.98;;
31694;SDS011;18289;51.330;4.946;2024-03-08T03:57:30;26.60;;;17.25;;
31694;SDS011;18289;51.330;4.946;2024-03-08T03:59:56;24.83;;;16.33;;
31694;SDS011;18289;51.330;4.946;2024-03-08T04:02:27;26.13;;;16.98;;
31694;SDS011;18289;51.330;4.946;2024-03-08T04:04:53;28.15;;;17.45;;
31694;SDS011;18289;51.330;4.946;2024-03-08T04:07:19;31.02;;;17.02;;
31694;SDS011;18289;51.330;4.946;2024-03-08T04:09:46;26.35;;;17.05;;
31694;SDS011;18289;51.330;4.946;2024-03-08T04:12:11;25.50;;;16.73;;
31694;SDS011;18289;51.330;4.946;2024-03-08T04:17:05;29.38;;;17.52;;
31694;SDS011;18289;51.330;4.946;2024-03-08T04:19:31;26.90;;;16.83;;
31694;SDS011;18289;51.330;4.946;2024-03-08T04:21:56;26.25;;;16.08;;
31694;SDS011;18289;51.330;4.946;2024-03-08T04:24:22;26.88;;;17.08;;
31694;SDS011;18289;51.330;4.946;2024-03-08T04:26:48;26.60;;;16.45;;
31694;SDS011;18289;51.330;4.946;2024-03-08T04:29:13;29.63;;;17.40;;
31694;SDS011;18289;51.330;4.946;2024-03-08T04:31:39;25.95;;;16.17;;
31694;SDS011;18289;51.330;4.946;2024-03-08T04:34:05;25.00;;;16.67;;
31694;SDS011;18289;51.330;4.946;2024-03-08T04:36:31;27.67;;;16.10;;
31694;SDS011;18289;51.330;4.946;2024-03-08T04:38:59;27.15;;;16.95;;
31694;SDS011;18289;51.330;4.946;2024-03-08T04:41:25;29.98;;;17.40;;
31694;SDS011;18289;51.330;4.946;2024-03-08T04:43:51;26.60;;;16.42;;
31694;SDS011;18289;51.330;4.946;2024-03-08T04:46:17;27.85;;;17.70;;
31694;SDS011;18289;51.330;4.946;2024-03-08T04:48:43;27.17;;;16.58;;
31694;SDS011;18289;51.330;4.946;2024-03-08T04:51:09;26.15;;;15.90;;
31694;SDS011;18289;51.330;4.946;2024-03-08T04:53:35;27.83;;;16.95;;
31694;SDS011;18289;51.330;4.946;2024-03-08T04:56:00;27.90;;;17.30;;
31694;SDS011;18289;51.330;4.946;2024-03-08T04:58:31;27.48;;;17.10;;
31694;SDS011;18289;51.330;4.946;2024-03-08T05:00:59;26.75;;;17.33;;
31694;SDS011;18289;51.330;4.946;2024-03-08T05:03:26;27.25;;;17.63;;
31694;SDS011;18289;51.330;4.946;2024-03-08T05:05:52;27.83;;;16.38;;
31694;SDS011;18289;51.330;4.946;2024-03-08T05:08:18;25.67;;;16.48;;
31694;SDS011;18289;51.330;4.946;2024-03-08T05:10:44;27.77;;;17.20;;
31694;SDS011;18289;51.330;4.946;2024-03-08T05:13:11;28.63;;;17.00;;
31694;SDS011;18289;51.330;4.946;2024-03-08T05:15:38;26.92;;;17.67;;
31694;SDS011;18289;51.330;4.946;2024-03-08T05:18:04;25.48;;;17.65;;
31694;SDS011;18289;51.330;4.946;2024-03-08T05:20:30;27.38;;;15.57;;
31694;SDS011;18289;51.330;4.946;2024-03-08T05:22:56;29.33;;;17.17;;
31694;SDS011;18289;51.330;4.946;2024-03-08T05:25:25;26.88;;;17.33;;
31694;SDS011;18289;51.330;4.946;2024-03-08T05:27:51;26.40;;;16.80;;
31694;SDS011;18289;51.330;4.946;2024-03-08T05:30:17;26.15;;;16.05;;
31694;SDS011;18289;51.330;4.946;2024-03-08T05:32:43;27.45;;;17.10;;
31694;SDS011;18289;51.330;4.946;2024-03-08T05:35:11;25.95;;;17.17;;
31694;SDS011;18289;51.330;4.946;2024-03-08T05:37:37;25.75;;;15.77;;
31694;SDS011;18289;51.330;4.946;2024-03-08T05:40:04;27.33;;;16.48;;
31694;SDS011;18289;51.330;4.946;2024-03-08T05:42:35;27.40;;;16.90;;
31694;SDS011;18289;51.330;4.946;2024-03-08T05:45:02;27.95;;;16.80;;
31694;SDS011;18289;51.330;4.946;2024-03-08T05:47:28;28.63;;;16.98;;
31694;SDS011;18289;51.330;4.946;2024-03-08T05:49:54;34.22;;;16.85;;
31694;SDS011;18289;51.330;4.946;2024-03-08T05:52:19;26.10;;;16.33;;
31694;SDS011;18289;51.330;4.946;2024-03-08T05:54:45;28.10;;;17.40;;
31694;SDS011;18289;51.330;4.946;2024-03-08T05:57:12;26.48;;;16.73;;
31694;SDS011;18289;51.330;4.946;2024-03-08T05:59:39;31.65;;;19.17;;
31694;SDS011;18289;51.330;4.946;2024-03-08T06:02:05;27.90;;;17.77;;
31694;SDS011;18289;51.330;4.946;2024-03-08T06:04:30;25.38;;;16.33;;
31694;SDS011;18289;51.330;4.946;2024-03-08T06:06:56;25.77;;;16.42;;
31694;SDS011;18289;51.330;4.946;2024-03-08T06:09:23;22.98;;;15.23;;
31694;SDS011;18289;51.330;4.946;2024-03-08T06:11:50;27.48;;;16.67;;
31694;SDS011;18289;51.330;4.946;2024-03-08T06:14:16;27.35;;;17.05;;
31694;SDS011;18289;51.330;4.946;2024-03-08T06:16:46;29.05;;;17.08;;
31694;SDS011;18289;51.330;4.946;2024-03-08T06:19:15;29.02;;;18.38;;
31694;SDS011;18289;51.330;4.946;2024-03-08T06:21:40;26.85;;;17.13;;
31694;SDS011;18289;51.330;4.946;2024-03-08T06:24:06;27.95;;;17.42;;
31694;SDS011;18289;51.330;4.946;2024-03-08T06:26:32;28.90;;;17.17;;
31694;SDS011;18289;51.330;4.946;2024-03-08T06:28:58;29.95;;;17.75;;
31694;SDS011;18289;51.330;4.946;2024-03-08T06:31:24;32.45;;;18.10;;
31694;SDS011;18289;51.330;4.946;2024-03-08T06:33:49;27.80;;;17.83;;
31694;SDS011;18289;51.330;4.946;2024-03-08T06:36:16;26.73;;;16.08;;
31694;SDS011;18289;51.330;4.946;2024-03-08T06:38:44;28.65;;;18.00;;
31694;SDS011;18289;51.330;4.946;2024-03-08T06:41:14;28.35;;;17.23;;
31694;SDS011;18289;51.330;4.946;2024-03-08T06:43:46;29.92;;;16.90;;
31694;SDS011;18289;51.330;4.946;2024-03-08T06:46:16;27.50;;;17.75;;
31694;SDS011;18289;51.330;4.946;2024-03-08T06:48:45;26.90;;;17.25;;
31694;SDS011;18289;51.330;4.946;2024-03-08T06:51:11;29.15;;;17.17;;
31694;SDS011;18289;51.330;4.946;2024-03-08T06:53:36;26.98;;;16.92;;
31694;SDS011;18289;51.330;4.946;2024-03-08T06:56:03;25.42;;;16.92;;
31694;SDS011;18289;51.330;4.946;2024-03-08T06:58:29;28.02;;;16.38;;
31694;SDS011;18289;51.330;4.946;2024-03-08T07:00:55;29.42;;;17.00;;
31694;SDS011;18289;51.330;4.946;2024-03-08T07:03:23;28.35;;;16.38;;
31694;SDS011;18289;51.330;4.946;2024-03-08T07:05:49;25.42;;;16.55;;
31694;SDS011;18289;51.330;4.946;2024-03-08T07:08:15;25.00;;;15.88;;
31694;SDS011;18289;51.330;4.946;2024-03-08T07:10:41;26.92;;;16.80;;
31694;SDS011;18289;51.330;4.946;2024-03-08T07:13:08;29.20;;;16.25;;
31694;SDS011;18289;51.330;4.946;2024-03-08T07:15:33;30.75;;;18.35;;
31694;SDS011;18289;51.330;4.946;2024-03-08T07:18:00;27.52;;;17.08;;
31694;SDS011;18289;51.330;4.946;2024-03-08T07:20:26;25.90;;;16.15;;
31694;SDS011;18289;51.330;4.946;2024-03-08T07:22:53;24.70;;;16.33;;
31694;SDS011;18289;51.330;4.946;2024-03-08T07:25:19;26.75;;;16.40;;
31694;SDS011;18289;51.330;4.946;2024-03-08T07:27:46;27.77;;;17.15;;
31694;SDS011;18289;51.330;4.946;2024-03-08T07:30:16;29.20;;;17.80;;
31694;SDS011;18289;51.330;4.946;2024-03-08T07:33:05;24.00;;;15.75;;
31694;SDS011;18289;51.330;4.946;2024-03-08T07:35:37;28.13;;;16.05;;
31694;SDS011;18289;51.330;4.946;2024-03-08T07:38:09;29.67;;;17.80;;
31694;SDS011;18289;51.330;4.946;2024-03-08T07:40:35;25.60;;;16.60;;
31694;SDS011;18289;51.330;4.946;2024-03-08T07:43:03;23.95;;;15.25;;
31694;SDS011;18289;51.330;4.946;2024-03-08T07:45:29;25.08;;;15.98;;
31694;SDS011;18289;51.330;4.946;2024-03-08T07:47:55;27.15;;;15.30;;
31694;SDS011;18289;51.330;4.946;2024-03-08T07:50:21;27.23;;;15.38;;
31694;SDS011;18289;51.330;4.946;2024-03-08T07:52:48;24.40;;;15.00;;
31694;SDS011;18289;51.330;4.946;2024-03-08T07:55:13;21.02;;;14.63;;
31694;SDS011;18289;51.330;4.946;2024-03-08T07:57:40;22.95;;;14.95;;
31694;SDS011;18289;51.330;4.946;2024-03-08T08:00:07;23.10;;;15.30;;
31694;SDS011;18289;51.330;4.946;2024-03-08T08:02:34;23.83;;;14.90;;
31694;SDS011;18289;51.330;4.946;2024-03-08T08:05:00;24.90;;;14.55;;
31694;SDS011;18289;51.330;4.946;2024-03-08T08:07:27;23.15;;;15.07;;
31694;SDS011;18289;51.330;4.946;2024-03-08T08:09:53;24.00;;;14.73;;
31694;SDS011;18289;51.330;4.946;2024-03-08T08:12:18;22.15;;;14.35;;
31694;SDS011;18289;51.330;4.946;2024-03-08T08:14:44;20.23;;;13.77;;
31694;SDS011;18289;51.330;4.946;2024-03-08T08:17:10;22.25;;;15.00;;
31694;SDS011;18289;51.330;4.946;2024-03-08T08:19:37;23.23;;;14.52;;
31694;SDS011;18289;51.330;4.946;2024-03-08T08:22:03;20.83;;;14.25;;
31694;SDS011;18289;51.330;4.946;2024-03-08T08:24:29;22.15;;;15.10;;
31694;SDS011;18289;51.330;4.946;2024-03-08T08:26:55;22.95;;;14.60;;
31694;SDS011;18289;51.330;4.946;2024-03-08T08:29:20;22.42;;;15.25;;
31694;SDS011;18289;51.330;4.946;2024-03-08T08:31:47;18.98;;;14.13;;
31694;SDS011;18289;51.330;4.946;2024-03-08T08:34:15;20.02;;;13.98;;
31694;SDS011;18289;51.330;4.946;2024-03-08T08:36:44;20.00;;;13.77;;
31694;SDS011;18289;51.330;4.946;2024-03-08T08:39:10;19.83;;;13.80;;
31694;SDS011;18289;51.330;4.946;2024-03-08T08:41:38;20.48;;;15.02;;
31694;SDS011;18289;51.330;4.946;2024-03-08T08:44:06;23.33;;;13.75;;
31694;SDS011;18289;51.330;4.946;2024-03-08T08:46:35;21.10;;;13.48;;
31694;SDS011;18289;51.330;4.946;2024-03-08T08:49:02;22.17;;;14.15;;
31694;SDS011;18289;51.330;4.946;2024-03-08T08:51:29;19.83;;;12.50;;
31694;SDS011;18289;51.330;4.946;2024-03-08T08:53:55;24.10;;;14.73;;
31694;SDS011;18289;51.330;4.946;2024-03-08T08:56:21;20.50;;;13.65;;
31694;SDS011;18289;51.330;4.946;2024-03-08T08:58:47;19.60;;;13.80;;
31694;SDS011;18289;51.330;4.946;2024-03-08T09:01:14;18.00;;;13.85;;
31694;SDS011;18289;51.330;4.946;2024-03-08T09:03:40;16.75;;;12.95;;
31694;SDS011;18289;51.330;4.946;2024-03-08T09:06:08;19.85;;;14.00;;
31694;SDS011;18289;51.330;4.946;2024-03-08T09:08:36;24.15;;;14.27;;
31694;SDS011;18289;51.330;4.946;2024-03-08T09:11:03;19.33;;;13.23;;
31694;SDS011;18289;51.330;4.946;2024-03-08T09:13:29;21.40;;;13.98;;
31694;SDS011;18289;51.330;4.946;2024-03-08T09:15:55;18.58;;;13.00;;
31694;SDS011;18289;51.330;4.946;2024-03-08T09:18:21;18.83;;;13.52;;
31694;SDS011;18289;51.330;4.946;2024-03-08T09:20:47;16.48;;;12.20;;
31694;SDS011;18289;51.330;4.946;2024-03-08T09:23:12;18.02;;;12.68;;
31694;SDS011;18289;51.330;4.946;2024-03-08T09:25:40;17.50;;;12.23;;
31694;SDS011;18289;51.330;4.946;2024-03-08T09:28:06;19.17;;;13.68;;
31694;SDS011;18289;51.330;4.946;2024-03-08T09:30:31;18.70;;;12.23;;
31694;SDS011;18289;51.330;4.946;2024-03-08T09:32:57;16.65;;;12.60;;
31694;SDS011;18289;51.330;4.946;2024-03-08T09:35:23;18.05;;;12.43;;
31694;SDS011;18289;51.330;4.946;2024-03-08T09:37:48;16.65;;;12.85;;
31694;SDS011;18289;51.330;4.946;2024-03-08T09:40:16;17.30;;;12.20;;
31694;SDS011;18289;51.330;4.946;2024-03-08T09:45:12;18.85;;;13.55;;
31694;SDS011;18289;51.330;4.946;2024-03-08T09:47:43;18.67;;;13.20;;
31694;SDS011;18289;51.330;4.946;2024-03-08T09:50:10;18.23;;;12.63;;
31694;SDS011;18289;51.330;4.946;2024-03-08T09:52:41;17.17;;;12.30;;
31694;SDS011;18289;51.330;4.946;2024-03-08T09:55:08;17.52;;;11.95;;
31694;SDS011;18289;51.330;4.946;2024-03-08T09:57:36;19.33;;;12.52;;
31694;SDS011;18289;51.330;4.946;2024-03-08T10:00:03;15.77;;;12.10;;
31694;SDS011;18289;51.330;4.946;2024-03-08T10:03:00;18.85;;;12.73;;
31694;SDS011;18289;51.330;4.946;2024-03-08T10:05:26;17.48;;;12.25;;
31694;SDS011;18289;51.330;4.946;2024-03-08T10:07:52;16.80;;;12.27;;
31694;SDS011;18289;51.330;4.946;2024-03-08T10:10:18;16.35;;;11.65;;
31694;SDS011;18289;51.330;4.946;2024-03-08T10:12:44;16.02;;;12.27;;
31694;SDS011;18289;51.330;4.946;2024-03-08T10:15:10;15.32;;;12.32;;
31694;SDS011;18289;51.330;4.946;2024-03-08T10:17:37;18.90;;;12.00;;
31694;SDS011;18289;51.330;4.946;2024-03-08T10:20:12;15.63;;;11.60;;
31694;SDS011;18289;51.330;4.946;2024-03-08T10:22:42;14.15;;;11.63;;
31694;SDS011;18289;51.330;4.946;2024-03-08T10:25:10;17.85;;;11.85;;
31694;SDS011;18289;51.330;4.946;2024-03-08T10:27:37;15.05;;;11.73;;
31694;SDS011;18289;51.330;4.946;2024-03-08T10:30:14;16.05;;;12.27;;
31694;SDS011;18289;51.330;4.946;2024-03-08T10:32:44;15.40;;;12.68;;
31694;SDS011;18289;51.330;4.946;2024-03-08T10:35:10;17.65;;;11.77;;
31694;SDS011;18289;51.330;4.946;2024-03-08T10:37:46;14.52;;;11.52;;
31694;SDS011;18289;51.330;4.946;2024-03-08T10:40:17;16.38;;;11.00;;
31694;SDS011;18289;51.330;4.946;2024-03-08T10:42:51;15.98;;;10.88;;
31694;SDS011;18289;51.330;4.946;2024-03-08T10:45:40;15.63;;;10.32;;
31694;SDS011;18289;51.330;4.946;2024-03-08T10:48:10;16.77;;;11.20;;
31694;SDS011;18289;51.330;4.946;2024-03-08T10:50:56;18.80;;;11.80;;
31694;SDS011;18289;51.330;4.946;2024-03-08T10:53:27;16.45;;;10.73;;
31694;SDS011;18289;51.330;4.946;2024-03-08T10:55:54;14.02;;;10.75;;
31694;SDS011;18289;51.330;4.946;2024-03-08T10:58:22;15.98;;;11.75;;
31694;SDS011;18289;51.330;4.946;2024-03-08T11:00:52;17.90;;;13.27;;
31694;SDS011;18289;51.330;4.946;2024-03-08T11:06:03;14.20;;;11.63;;
31694;SDS011;18289;51.330;4.946;2024-03-08T11:08:30;14.90;;;11.38;;
31694;SDS011;18289;51.330;4.946;2024-03-08T11:10:56;14.15;;;10.60;;
31694;SDS011;18289;51.330;4.946;2024-03-08T11:13:41;13.45;;;10.27;;
31694;SDS011;18289;51.330;4.946;2024-03-08T11:16:12;14.20;;;10.88;;
31694;SDS011;18289;51.330;4.946;2024-03-08T11:21:30;14.20;;;10.93;;
31694;SDS011;18289;51.330;4.946;2024-03-08T11:24:16;17.88;;;12.55;;
31694;SDS011;18289;51.330;4.946;2024-03-08T11:26:42;14.38;;;11.10;;
31694;SDS011;18289;51.330;4.946;2024-03-08T11:31:52;12.55;;;10.30;;
31694;SDS011;18289;51.330;4.946;2024-03-08T11:34:28;13.15;;;10.32;;
31694;SDS011;18289;51.330;4.946;2024-03-08T11:36:55;13.93;;;11.23;;
31694;SDS011;18289;51.330;4.946;2024-03-08T11:39:21;12.65;;;11.02;;
31694;SDS011;18289;51.330;4.946;2024-03-08T11:41:49;13.05;;;10.70;;
31694;SDS011;18289;51.330;4.946;2024-03-08T11:44:14;15.30;;;12.23;;
31694;SDS011;18289;51.330;4.946;2024-03-08T11:46:42;15.02;;;11.10;;
31694;SDS011;18289;51.330;4.946;2024-03-08T11:49:12;15.23;;;10.60;;
31694;SDS011;18289;51.330;4.946;2024-03-08T11:51:38;13.93;;;11.23;;
31694;SDS011;18289;51.330;4.946;2024-03-08T11:54:04;14.40;;;11.23;;
31694;SDS011;18289;51.330;4.946;2024-03-08T11:56:31;12.57;;;10.25;;
31694;SDS011;18289;51.330;4.946;2024-03-08T11:58:57;12.18;;;10.43;;
31694;SDS011;18289;51.330;4.946;2024-03-08T12:01:23;12.38;;;11.07;;
31694;SDS011;18289;51.330;4.946;2024-03-08T12:03:55;12.43;;;11.10;;
31694;SDS011;18289;51.330;4.946;2024-03-08T12:06:24;12.45;;;10.77;;
31694;SDS011;18289;51.330;4.946;2024-03-08T12:08:50;13.93;;;10.68;;
31694;SDS011;18289;51.330;4.946;2024-03-08T12:11:19;12.65;;;11.13;;
31694;SDS011;18289;51.330;4.946;2024-03-08T12:13:48;12.50;;;10.75;;
31694;SDS011;18289;51.330;4.946;2024-03-08T12:16:16;12.27;;;10.50;;
31694;SDS011;18289;51.330;4.946;2024-03-08T12:18:50;12.23;;;10.93;;
31694;SDS011;18289;51.330;4.946;2024-03-08T12:21:17;12.87;;;10.97;;
31694;SDS011;18289;51.330;4.946;2024-03-08T12:23:45;13.18;;;10.98;;
31694;SDS011;18289;51.330;4.946;2024-03-08T12:26:15;12.60;;;10.88;;
31694;SDS011;18289;51.330;4.946;2024-03-08T12:28:48;12.13;;;10.27;;
31694;SDS011;18289;51.330;4.946;2024-03-08T12:31:14;11.85;;;10.50;;
31694;SDS011;18289;51.330;4.946;2024-03-08T12:36:15;11.32;;;10.00;;
31694;SDS011;18289;51.330;4.946;2024-03-08T12:38:46;12.27;;;10.50;;
31694;SDS011;18289;51.330;4.946;2024-03-08T12:41:18;15.82;;;10.63;;
31694;SDS011;18289;51.330;4.946;2024-03-08T12:46:17;13.32;;;10.57;;
31694;SDS011;18289;51.330;4.946;2024-03-08T12:48:47;13.18;;;10.45;;
31694;SDS011;18289;51.330;4.946;2024-03-08T12:51:13;16.65;;;10.73;;
31694;SDS011;18289;51.330;4.946;2024-03-08T12:53:41;12.02;;;10.73;;
31694;SDS011;18289;51.330;4.946;2024-03-08T12:56:09;13.20;;;10.65;;
31694;SDS011;18289;51.330;4.946;2024-03-08T12:58:36;13.88;;;10.05;;
31694;SDS011;18289;51.330;4.946;2024-03-08T13:01:05;13.10;;;9.95;;
31694;SDS011;18289;51.330;4.946;2024-03-08T13:03:32;13.50;;;10.82;;
31694;SDS011;18289;51.330;4.946;2024-03-08T13:06:01;14.10;;;11.25;;
31694;SDS011;18289;51.330;4.946;2024-03-08T13:08:28;14.43;;;11.07;;
31694;SDS011;18289;51.330;4.946;2024-03-08T13:10:56;11.27;;;9.93;;
31694;SDS011;18289;51.330;4.946;2024-03-08T13:13:21;11.23;;;10.02;;
31694;SDS011;18289;51.330;4.946;2024-03-08T13:15:47;14.07;;;11.13;;
31694;SDS011;18289;51.330;4.946;2024-03-08T13:18:14;13.15;;;10.23;;
31694;SDS011;18289;51.330;4.946;2024-03-08T13:20:41;11.52;;;10.32;;
31694;SDS011;18289;51.330;4.946;2024-03-08T13:23:09;11.23;;;10.13;;
31694;SDS011;18289;51.330;4.946;2024-03-08T13:25:34;11.32;;;10.05;;
31694;SDS011;18289;51.330;4.946;2024-03-08T13:28:03;14.82;;;11.00;;
31694;SDS011;18289;51.330;4.946;2024-03-08T13:30:30;13.00;;;10.73;;
31694;SDS011;18289;51.330;4.946;2024-03-08T13:32:56;12.45;;;9.82;;
31694;SDS011;18289;51.330;4.946;2024-03-08T13:35:22;12.30;;;9.80;;
31694;SDS011;18289;51.330;4.946;2024-03-08T13:37:49;14.02;;;11.60;;
31694;SDS011;18289;51.330;4.946;2024-03-08T13:40:16;12.85;;;9.68;;
31694;SDS011;18289;51.330;4.946;2024-03-08T13:42:45;10.63;;;9.50;;
31694;SDS011;18289;51.330;4.946;2024-03-08T13:45:11;11.70;;;9.85;;
31694;SDS011;18289;51.330;4.946;2024-03-08T13:47:38;13.25;;;9.23;;
31694;SDS011;18289;51.330;4.946;2024-03-08T13:50:07;10.43;;;9.32;;
31694;SDS011;18289;51.330;4.946;2024-03-08T13:52:37;10.45;;;9.35;;
31694;SDS011;18289;51.330;4.946;2024-03-08T13:55:03;12.10;;;9.05;;
31694;SDS011;18289;51.330;4.946;2024-03-08T13:57:30;10.95;;;9.68;;
31694;SDS011;18289;51.330;4.946;2024-03-08T13:59:57;11.88;;;9.48;;
31694;SDS011;18289;51.330;4.946;2024-03-08T14:02:23;9.68;;;8.68;;
31694;SDS011;18289;51.330;4.946;2024-03-08T14:04:53;12.00;;;9.65;;
31694;SDS011;18289;51.330;4.946;2024-03-08T14:07:20;11.77;;;9.85;;
31694;SDS011;18289;51.330;4.946;2024-03-08T14:09:46;10.55;;;9.23;;
31694;SDS011;18289;51.330;4.946;2024-03-08T14:12:11;12.95;;;8.32;;
31694;SDS011;18289;51.330;4.946;2024-03-08T14:14:38;12.77;;;9.88;;
31694;SDS011;18289;51.330;4.946;2024-03-08T14:17:07;11.02;;;9.75;;
31694;SDS011;18289;51.330;4.946;2024-03-08T14:19:34;10.35;;;8.95;;
31694;SDS011;18289;51.330;4.946;2024-03-08T14:24:28;11.40;;;9.65;;
31694;SDS011;18289;51.330;4.946;2024-03-08T14:26:54;10.13;;;9.00;;
31694;SDS011;18289;51.330;4.946;2024-03-08T14:29:19;11.60;;;9.85;;
31694;SDS011;18289;51.330;4.946;2024-03-08T14:31:45;11.45;;;9.38;;
31694;SDS011;18289;51.330;4.946;2024-03-08T14:34:11;12.27;;;9.40;;
31694;SDS011;18289;51.330;4.946;2024-03-08T14:36:39;12.48;;;9.85;;
31694;SDS011;18289;51.330;4.946;2024-03-08T14:39:05;12.60;;;9.73;;
31694;SDS011;18289;51.330;4.946;2024-03-08T14:41:32;13.68;;;9.55;;
31694;SDS011;18289;51.330;4.946;2024-03-08T14:43:58;13.25;;;9.50;;
31694;SDS011;18289;51.330;4.946;2024-03-08T14:46:24;13.77;;;9.68;;
31694;SDS011;18289;51.330;4.946;2024-03-08T14:48:52;12.48;;;10.02;;
31694;SDS011;18289;51.330;4.946;2024-03-08T14:51:18;11.32;;;9.75;;
31694;SDS011;18289;51.330;4.946;2024-03-08T14:53:47;13.45;;;9.52;;
31694;SDS011;18289;51.330;4.946;2024-03-08T14:56:14;12.50;;;8.80;;